Time;durP1;ratioP1;P1;durP2;ratioP2;P2;SDS_P1;SDS_P2;PMS_P1;PMS_P2;Temp;Humidity;BMP_temperature;BMP_pressure;BME280_temperature;BME280_humidity;BME280_pressure;Samples;Min_cycle;Max_cycle;Signal;HPM_P1;HPM_P2
2022/04/15 00:00:33;;;;;;;16.80;11.70;;;;;;;12.09;55.54;98823.68;219271;1279;22566;-69
2022/04/15 00:05:36;;;;;;;18.00;12.10;;;;;;;12.09;56.03;98820.19;218311;1279;22562;-71
2022/04/15 00:10:45;;;;;;;22.60;11.80;;;;;;;12.10;56.10;98832.62;219571;1278;25321;-70
2022/04/15 00:15:50;;;;;;;15.90;11.60;;;;;;;12.09;56.22;98830.13;219494;1280;22562;-71
2022/04/15 00:20:53;;;;;;;19.20;12.40;;;;;;;12.07;56.56;98837.92;219317;1278;22566;-71
2022/04/15 00:25:56;;;;;;;19.10;11.60;;;;;;;12.06;56.83;98835.52;219179;1279;25351;-71
2022/04/15 00:30:59;;;;;;;16.90;12.10;;;;;;;12.05;57.15;98829.60;219434;1278;22556;-71
2022/04/15 00:36:02;;;;;;;20.50;13.00;;;;;;;12.01;57.53;98833.91;218964;1278;25330;-70
2022/04/15 00:41:05;;;;;;;16.80;12.20;;;;;;;11.98;57.85;98842.65;219468;1278;22579;-71
2022/04/15 00:46:13;;;;;;;18.30;13.20;;;;;;;11.95;58.28;98848.02;219547;1278;22545;-71
2022/04/15 00:51:16;;;;;;;15.70;12.40;;;;;;;11.93;58.38;98852.71;219400;1279;25226;-71
2022/04/15 00:56:20;;;;;;;19.30;13.90;;;;;;;11.91;58.78;98860.15;219163;1279;22611;-73
2022/04/15 01:01:33;;;;;;;18.50;13.90;;;;;;;11.88;59.19;98853.81;219620;1279;22563;-71
2022/04/15 01:06:38;;;;;;;19.10;13.70;;;;;;;11.85;59.54;98848.72;219594;1279;22541;-70
2022/04/15 01:11:43;;;;;;;18.00;13.50;;;;;;;11.81;59.82;98844.41;219662;1279;22582;-71
2022/04/15 01:16:46;;;;;;;19.40;13.30;;;;;;;11.80;59.92;98841.48;219224;1279;23642;-71
2022/04/15 01:21:54;;;;;;;19.40;14.00;;;;;;;11.76;60.24;98846.66;219310;1280;22701;-72
2022/04/15 01:26:58;;;;;;;20.00;13.90;;;;;;;11.73;60.41;98859.73;218341;1279;24315;-71
2022/04/15 01:32:03;;;;;;;19.80;15.10;;;;;;;11.71;60.94;98855.83;219441;1279;26389;-72
2022/04/15 01:37:06;;;;;;;20.70;14.60;;;;;;;11.68;60.99;98859.77;219087;1279;24426;-69
2022/04/15 01:42:11;;;;;;;20.60;14.20;;;;;;;11.65;61.16;98862.02;219317;1279;24242;-70
2022/04/15 01:47:16;;;;;;;21.10;14.00;;;;;;;11.62;61.47;98862.80;219210;1279;22540;-71
2022/04/15 01:52:19;;;;;;;22.20;15.00;;;;;;;11.62;61.73;98869.73;219283;1279;24322;-71
2022/04/15 01:57:21;;;;;;;19.40;14.70;;;;;;;11.60;62.04;98874.02;219145;1279;22569;-70
2022/04/15 02:02:24;;;;;;;20.30;14.00;;;;;;;11.58;62.41;98877.59;219293;1279;22549;-70
2022/04/15 02:07:27;;;;;;;17.70;13.30;;;;;;;11.58;62.77;98876.63;219467;1279;25456;-71
2022/04/15 02:12:30;;;;;;;16.40;12.50;;;;;;;11.57;62.99;98875.73;219418;1278;25381;-71
2022/04/15 02:17:35;;;;;;;17.30;12.70;;;;;;;11.54;63.20;98875.08;219448;1279;25529;-71
2022/04/15 02:22:44;;;;;;;17.80;12.80;;;;;;;11.52;63.49;98878.64;219322;1277;26500;-70
2022/04/15 02:27:50;;;;;;;21.20;13.10;;;;;;;11.50;63.57;98879.54;219412;1278;22723;-71
2022/04/15 02:32:53;;;;;;;18.30;14.10;;;;;;;11.48;63.99;98885.25;219365;1278;25277;-71
2022/04/15 02:37:55;;;;;;;15.60;11.80;;;;;;;11.48;64.35;98888.25;219316;1277;25236;-70
2022/04/15 02:43:00;;;;;;;15.10;11.20;;;;;;;11.51;64.68;98889.71;219043;1277;22627;-70
2022/04/15 02:48:03;;;;;;;15.40;11.80;;;;;;;11.55;64.79;98889.23;219384;1278;22595;-69
2022/04/15 02:53:06;;;;;;;15.10;11.20;;;;;;;11.57;65.31;98889.08;217794;1281;22571;-71
2022/04/15 02:58:09;;;;;;;13.00;10.20;;;;;;;11.61;65.64;98898.14;219472;1279;22571;-70
2022/04/15 03:03:12;;;;;;;15.60;10.20;;;;;;;11.63;65.71;98918.55;218113;1280;24321;-71
2022/04/15 03:08:15;;;;;;;15.00;10.10;;;;;;;11.64;66.14;98926.98;219096;1280;24326;-71
2022/04/15 03:13:24;;;;;;;15.60;9.50;;;;;;;11.63;67.13;98931.16;219183;1279;25333;-71
2022/04/15 03:18:27;;;;;;;10.90;8.40;;;;;;;11.61;67.85;98931.30;219398;1278;24113;-71
2022/04/15 03:23:29;;;;;;;12.20;8.60;;;;;;;11.57;68.39;98935.45;219425;1277;25430;-70
2022/04/15 03:28:35;;;;;;;11.00;8.10;;;;;;;11.54;69.41;98943.27;219303;1278;25335;-70
2022/04/15 03:33:46;;;;;;;9.80;8.00;;;;;;;11.43;69.98;98943.15;219271;1277;22553;-71
2022/04/15 03:38:49;;;;;;;8.80;7.80;;;;;;;11.25;71.09;98939.70;219399;1278;22770;-70
2022/04/15 03:43:52;;;;;;;10.90;7.50;;;;;;;11.03;72.04;98927.05;219072;1278;22579;-70
2022/04/15 03:48:54;;;;;;;9.10;7.20;;;;;;;10.86;72.54;98916.05;219343;1277;25321;-71
2022/04/15 03:54:03;;;;;;;12.20;8.10;;;;;;;10.70;73.37;98904.59;218987;1279;24165;-70
2022/04/15 03:59:15;;;;;;;10.00;8.20;;;;;;;10.60;73.99;98886.98;219362;1279;25343;-71
2022/04/15 04:04:18;;;;;;;8.80;7.20;;;;;;;10.55;74.54;98861.33;219028;1280;22693;-71
2022/04/15 04:09:26;;;;;;;12.50;8.00;;;;;;;10.52;74.91;98875.98;219283;1279;25287;-70
2022/04/15 04:14:30;;;;;;;11.00;8.10;;;;;;;10.50;75.44;98879.77;219612;1277;25255;-70
2022/04/15 04:19:33;;;;;;;11.50;7.30;;;;;;;10.46;76.01;98881.89;219477;1280;25386;-71
2022/04/15 04:24:39;;;;;;;11.60;8.80;;;;;;;10.43;76.13;98898.52;219241;1277;25309;-70
2022/04/15 04:29:41;;;;;;;10.90;8.20;;;;;;;10.42;76.27;98909.24;219335;1280;25262;-70
2022/04/15 04:34:45;;;;;;;11.50;8.70;;;;;;;10.41;76.68;98915.41;219223;1279;25214;-70
2022/04/15 04:39:49;;;;;;;9.70;8.10;;;;;;;10.39;76.85;98914.90;219662;1281;22573;-71
2022/04/15 04:45:10;;;;;;;11.50;8.20;;;;;;;10.37;77.12;98917.75;219218;1280;24401;-70
2022/04/15 04:50:16;;;;;;;11.30;9.40;;;;;;;10.38;77.58;98932.91;219040;1281;25405;-71
2022/04/15 04:55:33;;;;;;;10.80;8.80;;;;;;;10.38;77.84;98950.41;219494;1280;22591;-70
2022/04/15 05:00:36;;;;;;;13.20;10.00;;;;;;;10.33;78.32;98947.98;219405;1281;23533;-70
2022/04/15 05:05:41;;;;;;;12.60;9.30;;;;;;;10.28;78.53;98954.81;219060;1281;26027;-71
2022/04/15 05:10:44;;;;;;;12.90;9.10;;;;;;;10.28;78.57;98945.61;219555;1278;22569;-70
2022/04/15 05:15:47;;;;;;;10.30;8.90;;;;;;;10.31;78.96;98951.32;219732;1277;22576;-70
2022/04/15 05:20:50;;;;;;;11.30;9.30;;;;;;;10.33;79.10;98954.25;219576;1277;22576;-71
2022/04/15 05:25:53;;;;;;;11.10;8.80;;;;;;;10.37;79.22;98954.61;219525;1278;23971;-71
2022/04/15 05:31:15;;;;;;;11.80;8.70;;;;;;;10.40;79.45;98958.70;218436;1280;22841;-70
2022/04/15 05:36:18;;;;;;;11.40;9.50;;;;;;;10.41;79.46;98959.92;218614;1281;22597;-71
2022/04/15 05:41:31;;;;;;;13.20;9.90;;;;;;;10.43;79.74;98965.16;218367;1281;25261;-71
2022/04/15 05:46:37;;;;;;;11.80;9.80;;;;;;;10.44;79.88;98962.80;218401;1281;25490;-70
2022/04/15 05:51:45;;;;;;;12.90;9.60;;;;;;;10.48;79.96;98961.80;218655;1280;22717;-70
2022/04/15 05:56:51;;;;;;;11.40;8.70;;;;;;;10.50;80.24;98961.02;218612;1281;22573;-71
2022/04/15 06:01:56;;;;;;;12.20;8.70;;;;;;;10.51;80.26;98962.55;219597;1279;25968;-71
2022/04/15 06:06:59;;;;;;;11.00;9.00;;;;;;;10.51;80.48;98962.30;219430;1280;23775;-71
2022/04/15 06:12:11;;;;;;;11.30;9.00;;;;;;;10.53;80.49;98965.86;219276;1280;22996;-71
2022/04/15 06:17:23;;;;;;;12.30;9.10;;;;;;;10.54;80.56;98970.84;219062;1281;25446;-70
2022/04/15 06:22:26;;;;;;;14.00;10.90;;;;;;;10.53;80.84;98970.33;219150;1281;22669;-71
2022/04/15 06:27:28;;;;;;;14.90;12.20;;;;;;;10.52;81.04;98968.08;218406;1280;22567;-70
2022/04/15 06:32:31;;;;;;;19.70;13.60;;;;;;;10.59;81.50;98966.66;218564;1280;22579;-70
2022/04/15 06:37:34;;;;;;;18.10;13.60;;;;;;;10.64;81.81;98972.17;218772;1279;22543;-70
2022/04/15 06:42:37;;;;;;;18.50;14.60;;;;;;;10.63;81.82;98972.57;218550;1279;22592;-71
2022/04/15 06:47:42;;;;;;;19.90;15.50;;;;;;;10.64;82.07;98977.70;219343;1280;22744;-70
2022/04/15 06:52:47;;;;;;;22.30;16.10;;;;;;;10.69;82.29;98983.00;218589;1280;22582;-71
2022/04/15 06:57:50;;;;;;;19.40;15.30;;;;;;;10.75;82.44;98984.45;219733;1280;22564;-71
2022/04/15 07:02:52;;;;;;;17.10;13.40;;;;;;;10.79;82.68;98989.71;219710;1280;22558;-70
2022/04/15 07:08:11;;;;;;;20.40;15.60;;;;;;;10.86;82.62;98994.04;219386;1279;22608;-71
2022/04/15 07:13:23;;;;;;;14.90;11.30;;;;;;;10.94;82.64;98996.41;219927;1277;22630;-71
2022/04/15 07:18:33;;;;;;;14.70;11.50;;;;;;;11.03;82.63;99001.24;213881;1309;545053;-71
2022/04/15 07:23:38;;;;;;;12.10;10.10;;;;;;;11.08;82.78;99001.52;218361;1283;22622;-71
2022/04/15 07:28:43;;;;;;;10.60;9.10;;;;;;;11.16;82.57;98998.90;218217;1283;277078;-71
2022/04/15 07:33:49;;;;;;;11.20;9.50;;;;;;;11.14;82.37;99002.95;219089;1281;24563;-71
2022/04/15 07:39:15;;;;;;;12.60;11.10;;;;;;;11.11;82.53;99010.58;218888;1281;22563;-70
2022/04/15 07:44:19;;;;;;;13.80;11.30;;;;;;;11.08;82.53;99009.51;218851;1281;25374;-71
2022/04/15 07:49:22;;;;;;;13.50;10.60;;;;;;;11.03;82.39;99013.10;218857;1281;25329;-70
2022/04/15 07:54:25;;;;;;;13.10;11.70;;;;;;;11.01;82.79;99020.10;219045;1273;25506;-71
2022/04/15 07:59:28;;;;;;;14.40;11.40;;;;;;;11.04;83.02;99024.34;219269;1272;22995;-70
2022/04/15 08:04:34;;;;;;;13.00;11.30;;;;;;;11.11;83.16;99029.10;220281;1274;25231;-71
2022/04/15 08:09:38;;;;;;;13.60;11.80;;;;;;;11.25;83.30;99027.88;220313;1274;22759;-72
2022/04/15 08:14:44;;;;;;;11.10;10.00;;;;;;;11.43;82.98;99032.64;218777;1275;22556;-71
2022/04/15 08:19:47;;;;;;;10.30;8.70;;;;;;;11.54;82.77;99033.85;219155;1274;22537;-71
2022/04/15 08:24:58;;;;;;;10.80;9.10;;;;;;;11.57;82.46;99036.33;218897;1274;22555;-69
2022/04/15 08:30:13;;;;;;;10.50;9.50;;;;;;;11.63;82.62;99034.38;219791;1274;25527;-71
2022/04/15 08:35:28;;;;;;;12.50;11.10;;;;;;;11.74;82.51;99029.87;219180;1275;22543;-71
2022/04/15 08:40:46;;;;;;;11.20;9.40;;;;;;;11.90;82.11;99032.08;219886;1274;22698;-71
2022/04/15 08:45:56;;;;;;;11.70;10.30;;;;;;;12.05;81.84;99037.10;219844;1274;22566;-70
2022/04/15 08:51:09;;;;;;;12.90;11.30;;;;;;;12.20;81.43;99033.11;219865;1274;22550;-70
2022/04/15 08:56:13;;;;;;;12.10;10.70;;;;;;;12.32;80.83;99033.13;219972;1275;23422;-70
2022/04/15 09:01:16;;;;;;;11.20;9.30;;;;;;;12.31;80.27;99037.98;219988;1274;23841;-71
2022/04/15 09:06:40;;;;;;;10.70;9.60;;;;;;;12.39;80.00;99042.85;220077;1274;25369;-71
2022/04/15 09:11:49;;;;;;;11.30;9.60;;;;;;;12.60;79.87;99039.27;219157;1274;25293;-70
2022/04/15 09:16:55;;;;;;;12.80;10.40;;;;;;;12.93;79.41;99037.25;218719;1274;22558;-70
2022/04/15 09:22:00;;;;;;;13.50;11.90;;;;;;;13.23;78.62;99036.46;218797;1272;23676;-70
2022/04/15 09:27:05;;;;;;;12.70;11.40;;;;;;;13.31;77.56;99031.95;219065;1274;23818;-70
2022/04/15 09:32:14;;;;;;;13.70;11.80;;;;;;;13.30;77.65;99031.08;219355;1274;25251;-71
2022/04/15 09:37:17;;;;;;;15.10;13.30;;;;;;;13.59;77.81;99023.23;220067;1274;22605;-70
2022/04/15 09:42:35;;;;;;;13.40;12.00;;;;;;;14.00;76.92;99021.84;219824;1274;26378;-70
2022/04/15 09:47:42;;;;;;;12.70;11.20;;;;;;;14.45;76.00;99017.82;220119;1274;24410;-70
2022/04/15 09:53:19;;;;;;;12.70;11.20;;;;;;;14.59;74.79;99018.17;220064;1274;23044;-69
2022/04/15 09:58:39;;;;;;;12.90;10.70;;;;;;;14.69;74.24;99008.38;219888;1274;22554;-70
2022/04/15 10:03:45;;;;;;;12.90;11.20;;;;;;;14.89;73.48;99007.31;218813;1274;22556;-70
2022/04/15 10:08:48;;;;;;;14.90;11.60;;;;;;;15.00;72.52;99005.35;220311;1274;26467;-69
2022/04/15 10:13:51;;;;;;;13.00;10.80;;;;;;;15.00;71.49;99007.96;218955;1271;22571;-71
2022/04/15 10:19:04;;;;;;;12.40;11.00;;;;;;;15.04;71.18;98999.69;220060;1269;22558;-71
2022/04/15 10:24:09;;;;;;;11.20;10.10;;;;;;;15.21;71.03;98998.09;220179;1270;25409;-70
2022/04/15 10:29:13;;;;;;;9.80;8.80;;;;;;;15.51;70.16;98994.40;220220;1273;22639;-71
2022/04/15 10:34:19;;;;;;;10.40;9.00;;;;;;;15.62;68.73;98996.10;220409;1271;22588;-70
2022/04/15 10:39:29;;;;;;;9.80;8.40;;;;;;;15.68;68.33;98987.85;220138;1271;22755;-70
2022/04/15 10:44:37;;;;;;;10.20;8.50;;;;;;;15.91;68.27;98984.54;219398;1271;22560;-70
2022/04/15 10:50:09;;;;;;;9.90;8.50;;;;;;;16.22;67.45;98983.95;219075;1271;22579;-70
2022/04/15 10:55:19;;;;;;;9.70;8.80;;;;;;;16.36;66.25;98976.13;219136;1271;24363;-72
2022/04/15 11:05:50;;;;;;;8.60;7.70;;;;;;;16.34;64.48;98969.15;219950;1273;25414;-70
2022/04/15 11:11:02;;;;;;;8.50;7.70;;;;;;;16.26;64.03;98966.77;220454;1271;23086;-70
2022/04/15 11:16:08;;;;;;;8.60;7.70;;;;;;;16.27;63.97;98963.57;220521;1271;22953;-71
2022/04/15 11:21:21;;;;;;;8.00;7.20;;;;;;;16.39;63.77;98958.71;220521;1271;22690;-70
2022/04/15 11:26:27;;;;;;;7.30;6.20;;;;;;;16.38;63.09;98954.51;219765;1271;22536;-71
2022/04/15 11:31:32;;;;;;;7.30;6.30;;;;;;;16.31;62.81;98949.96;219866;1271;22557;-70
2022/04/15 11:36:40;;;;;;;7.00;6.30;;;;;;;16.36;62.95;98943.84;219501;1271;25371;-71
2022/04/15 11:41:46;;;;;;;6.30;5.60;;;;;;;16.47;61.83;98936.94;220354;1273;22565;-69
2022/04/15 11:47:18;;;;;;;7.70;6.50;;;;;;;16.43;61.55;98934.31;219596;1271;24798;-71
2022/04/15 11:52:26;;;;;;;6.20;5.60;;;;;;;16.56;60.91;98930.86;220539;1273;25380;-71
2022/04/15 11:57:31;;;;;;;5.40;4.80;;;;;;;16.62;60.73;98927.59;220297;1271;22583;-72
2022/04/15 12:02:41;;;;;;;5.20;4.80;;;;;;;16.72;60.33;98925.77;219967;1273;22566;-71
2022/04/15 12:07:44;;;;;;;3.50;3.20;;;;;;;17.16;59.90;98921.92;220468;1271;23530;-69
2022/04/15 12:12:51;;;;;;;4.90;4.40;;;;;;;17.61;58.26;98917.70;220168;1271;24219;-70
2022/04/15 12:18:06;;;;;;;3.20;2.90;;;;;;;17.97;56.90;98920.15;220349;1273;22579;-71
2022/04/15 12:23:14;;;;;;;3.60;3.00;;;;;;;18.04;54.65;98913.36;219954;1271;24300;-71
2022/04/15 12:33:46;;;;;;;2.80;2.60;;;;;;;17.25;52.80;98915.14;220480;1271;22660;-71
2022/04/15 12:39:01;;;;;;;4.00;3.40;;;;;;;16.70;53.37;98920.02;220530;1271;22589;-71
2022/04/15 12:44:14;;;;;;;4.20;3.80;;;;;;;16.15;54.31;98927.67;220244;1271;23237;-70
2022/04/15 12:49:29;;;;;;;6.80;6.00;;;;;;;15.57;55.48;98954.77;220806;1271;25242;-70
2022/04/15 12:54:32;;;;;;;9.80;6.90;;;;;;;14.50;57.94;98968.03;220015;1271;23048;-71
2022/04/15 12:59:36;;;;;;;6.20;5.20;;;;;;;13.49;61.89;98977.70;220391;1271;23863;-71
2022/04/15 13:04:39;;;;;;;7.20;5.80;;;;;;;12.61;64.75;98991.10;219529;1272;22557;-69
2022/04/15 13:09:42;;;;;;;6.50;5.90;;;;;;;11.93;67.42;98998.85;219522;1271;25377;-71
2022/04/15 13:14:47;;;;;;;9.00;7.00;;;;;;;11.42;70.14;99002.77;219603;1271;25309;-70
2022/04/15 13:19:52;;;;;;;8.40;5.90;;;;;;;10.99;72.03;99006.17;219821;1271;25319;-71
2022/04/15 13:25:08;;;;;;;5.80;4.90;;;;;;;10.64;73.55;99002.29;220561;1273;22692;-72
2022/04/15 13:30:18;;;;;;;6.50;5.80;;;;;;;10.54;74.48;99009.36;220615;1273;25303;-73
2022/04/15 13:35:24;;;;;;;7.40;5.60;;;;;;;10.68;75.47;99003.49;220879;1271;22470;-75
2022/04/15 13:40:29;;;;;;;6.10;5.30;;;;;;;10.87;75.64;99003.98;220779;1273;25491;-74
2022/04/15 13:45:37;;;;;;;5.90;4.80;;;;;;;11.10;75.86;98996.61;220856;1271;23841;-73
2022/04/15 13:50:44;;;;;;;5.20;3.90;;;;;;;11.26;75.52;98995.36;220736;1271;22720;-73
2022/04/15 14:01:26;;;;;;;7.60;4.90;;;;;;;11.62;75.55;98988.71;220441;1273;22704;-71
2022/04/15 14:06:30;;;;;;;6.00;4.50;;;;;;;11.68;75.37;98987.93;221037;1271;23155;-73
2022/04/15 14:11:39;;;;;;;4.90;4.30;;;;;;;11.68;75.25;98993.30;220540;1273;22798;-72
2022/04/15 14:16:45;;;;;;;4.00;3.60;;;;;;;11.65;75.04;98991.36;220474;1273;25378;-72
2022/04/15 14:21:58;;;;;;;5.90;3.90;;;;;;;11.58;74.69;98986.77;220559;1273;22541;-72
2022/04/15 14:27:13;;;;;;;4.40;3.80;;;;;;;11.51;74.70;98983.88;220638;1268;24209;-72
2022/04/15 14:32:27;;;;;;;6.60;4.20;;;;;;;11.43;74.84;98986.07;220815;1271;25255;-73
2022/04/15 14:37:48;;;;;;;3.70;3.30;;;;;;;11.36;74.71;98988.64;220455;1273;22606;-73
2022/04/15 14:43:02;;;;;;;4.90;3.90;;;;;;;11.32;74.82;98991.56;220665;1271;22566;-73
2022/04/15 14:48:18;;;;;;;5.10;4.10;;;;;;;11.33;75.00;98991.62;220416;1271;22633;-72
2022/04/15 14:53:23;;;;;;;7.20;5.40;;;;;;;11.42;75.51;98983.62;220527;1273;22547;-72
2022/04/15 14:58:30;;;;;;;7.10;5.60;;;;;;;11.58;75.00;98991.84;220735;1271;25283;-71
2022/04/15 15:03:33;;;;;;;7.20;5.60;;;;;;;11.68;74.57;98986.23;220760;1271;24286;-72
2022/04/15 15:08:35;;;;;;;7.90;5.70;;;;;;;11.70;74.03;98982.06;220612;1271;25508;-72
2022/04/15 15:13:39;;;;;;;8.20;6.70;;;;;;;11.69;74.03;98989.10;220523;1271;24252;-71
2022/04/15 15:18:45;;;;;;;8.10;6.70;;;;;;;11.67;73.97;98995.36;220882;1271;23472;-71
2022/04/15 15:34:36;;;;;;;10.60;8.70;;;;;;;11.27;74.31;99004.09;220579;1271;22557;-69
2022/04/15 15:39:39;;;;;;;10.80;8.30;;;;;;;11.15;74.59;99006.26;219560;1271;23094;-73
2022/04/15 15:44:42;;;;;;;10.20;8.40;;;;;;;11.01;75.02;99016.19;220480;1271;22581;-71
2022/04/15 15:49:57;;;;;;;10.60;7.80;;;;;;;10.92;74.74;99016.00;220620;1271;22550;-72
2022/04/15 15:55:00;;;;;;;10.90;8.90;;;;;;;10.85;74.87;99009.91;220595;1271;26426;-74
2022/04/15 16:00:21;;;;;;;9.50;7.50;;;;;;;10.80;74.93;99018.33;220369;1271;23127;-73
2022/04/15 16:05:49;;;;;;;10.10;8.30;;;;;;;10.75;75.13;99027.48;220615;1271;26458;-72
2022/04/15 16:10:55;;;;;;;10.50;8.20;;;;;;;10.70;75.07;99024.16;220390;1271;22666;-70
2022/04/15 16:16:15;;;;;;;9.80;8.30;;;;;;;10.67;75.20;99022.36;220374;1273;26469;-72
2022/04/15 16:21:21;;;;;;;12.10;9.20;;;;;;;10.66;75.32;99026.55;220383;1273;26653;-72
2022/04/15 16:26:33;;;;;;;9.60;8.30;;;;;;;10.66;75.40;99027.26;220649;1271;22610;-71
2022/04/15 16:31:36;;;;;;;10.30;8.50;;;;;;;10.66;75.31;99027.58;220318;1273;22568;-71
2022/04/15 16:36:43;;;;;;;9.00;7.70;;;;;;;10.61;75.39;99034.74;220223;1273;25253;-70
2022/04/15 16:41:48;;;;;;;8.80;7.50;;;;;;;10.50;74.96;99029.37;220150;1271;22560;-71
2022/04/15 16:46:54;;;;;;;8.20;6.40;;;;;;;10.45;74.80;99032.69;220658;1271;22546;-71
2022/04/15 16:51:58;;;;;;;8.20;6.80;;;;;;;10.37;74.55;99035.69;220547;1271;25249;-71
2022/04/15 17:02:22;;;;;;;8.40;6.50;;;;;;;10.09;74.69;99042.61;220679;1271;22559;-70
2022/04/15 17:07:27;;;;;;;8.60;6.10;;;;;;;9.93;74.87;99044.48;220278;1271;22554;-72
2022/04/15 17:12:30;;;;;;;7.70;6.00;;;;;;;9.80;75.05;99051.46;220543;1271;25252;-72
2022/04/15 17:17:35;;;;;;;6.80;5.30;;;;;;;9.72;74.97;99049.00;220629;1271;22730;-71
2022/04/15 17:22:38;;;;;;;9.10;6.00;;;;;;;9.69;75.06;99052.27;220616;1271;23039;-72
2022/04/15 17:27:41;;;;;;;8.00;4.90;;;;;;;9.66;75.12;99053.09;220220;1271;22588;-71
2022/04/15 17:32:45;;;;;;;7.40;5.70;;;;;;;9.62;74.99;99066.75;220440;1271;25322;-72
2022/04/15 17:37:50;;;;;;;7.40;5.70;;;;;;;9.61;75.00;99071.09;220459;1271;22566;-72
2022/04/15 17:43:13;;;;;;;7.80;5.40;;;;;;;9.59;74.96;99070.23;220613;1271;26362;-72
2022/04/15 17:48:18;;;;;;;7.00;4.80;;;;;;;9.57;74.99;99080.02;220411;1271;22534;-71
2022/04/15 17:53:26;;;;;;;7.60;4.90;;;;;;;9.55;75.06;99089.41;220496;1271;24246;-71
2022/04/15 17:58:34;;;;;;;7.30;5.40;;;;;;;9.50;75.04;99097.29;220479;1271;22594;-71
2022/04/15 18:03:39;;;;;;;7.80;5.20;;;;;;;9.46;75.12;99103.02;219347;1271;22547;-71
2022/04/15 18:08:44;;;;;;;7.60;5.50;;;;;;;9.43;75.08;99102.17;220690;1271;22735;-71
2022/04/15 18:13:50;;;;;;;7.50;5.20;;;;;;;9.40;75.19;99106.95;221080;1271;22543;-71
2022/04/15 18:18:52;;;;;;;8.20;5.80;;;;;;;9.37;75.34;99108.93;220720;1271;22553;-70
2022/04/15 18:23:58;;;;;;;5.90;5.00;;;;;;;9.35;75.43;99108.62;220494;1271;22569;-71
2022/04/15 18:29:04;;;;;;;10.20;6.50;;;;;;;9.34;75.52;99112.10;220678;1271;22623;-72
2022/04/15 18:34:13;;;;;;;7.50;5.80;;;;;;;9.32;75.49;99115.63;220695;1271;22560;-72
2022/04/15 18:39:16;;;;;;;8.90;6.50;;;;;;;9.29;75.51;99114.99;220473;1271;23832;-71
2022/04/15 18:44:19;;;;;;;9.10;6.30;;;;;;;9.29;75.55;99116.65;220469;1271;23339;-71
2022/04/15 18:55:19;;;;;;;7.20;6.10;;;;;;;9.24;75.48;99122.65;220789;1271;22582;-72
2022/04/15 19:00:28;;;;;;;9.90;7.20;;;;;;;9.17;75.71;99125.02;220757;1271;22693;-72
2022/04/15 19:05:36;;;;;;;12.80;9.50;;;;;;;9.12;75.85;99122.25;220911;1271;25491;-71
2022/04/15 19:10:44;;;;;;;10.00;7.10;;;;;;;9.07;75.91;99127.44;220537;1271;22934;-71
2022/04/15 19:15:48;;;;;;;8.50;7.30;;;;;;;9.05;75.97;99127.98;220652;1271;25361;-71
2022/04/15 19:20:57;;;;;;;9.20;7.40;;;;;;;9.02;76.06;99128.84;220712;1271;22710;-71
2022/04/15 19:26:06;;;;;;;8.90;7.20;;;;;;;8.99;76.18;99132.42;220160;1273;23195;-71
2022/04/15 19:31:12;;;;;;;10.60;7.20;;;;;;;8.97;76.25;99131.40;220239;1271;547697;-71
2022/04/15 19:36:18;;;;;;;9.50;7.60;;;;;;;8.95;76.25;99133.11;220981;1271;22570;-71
2022/04/15 19:41:23;;;;;;;11.10;7.90;;;;;;;8.93;76.35;99124.58;220559;1271;22695;-71
2022/04/15 19:46:30;;;;;;;10.20;7.60;;;;;;;8.90;76.46;99130.77;220396;1271;24435;-72
2022/04/15 19:51:39;;;;;;;10.10;7.50;;;;;;;8.87;76.52;99126.45;220403;1273;22612;-71
2022/04/15 20:02:36;;;;;;;10.10;7.80;;;;;;;8.80;76.73;99131.73;220562;1271;22554;-70
2022/04/15 20:07:49;;;;;;;10.40;8.10;;;;;;;8.78;76.92;99131.74;220589;1271;22598;-71
2022/04/15 20:13:07;;;;;;;7.90;6.70;;;;;;;8.76;76.81;99131.03;220314;1271;22549;-71
2022/04/15 20:18:29;;;;;;;8.00;6.30;;;;;;;8.76;76.97;99130.08;220039;1272;25243;-70
2022/04/15 20:23:47;;;;;;;8.10;6.50;;;;;;;8.73;76.91;99128.85;220314;1271;23023;-70
2022/04/15 20:28:54;;;;;;;9.90;7.10;;;;;;;8.75;77.02;99132.43;220251;1273;22564;-72
2022/04/15 20:33:57;;;;;;;11.40;8.70;;;;;;;8.78;77.03;99132.91;220544;1271;22542;-71
2022/04/15 20:39:04;;;;;;;10.60;7.90;;;;;;;8.78;77.14;99135.48;220111;1271;24254;-71
2022/04/15 20:44:30;;;;;;;7.80;6.30;;;;;;;8.78;77.01;99132.38;220274;1271;24297;-71
2022/04/15 20:49:50;;;;;;;7.70;6.40;;;;;;;8.78;76.95;99133.61;220173;1271;22681;-71
2022/04/15 20:55:01;;;;;;;9.10;6.50;;;;;;;8.78;76.84;99134.19;219913;1271;22557;-71
2022/04/15 21:00:18;;;;;;;8.30;6.00;;;;;;;8.75;76.71;99132.59;219954;1271;22647;-71
2022/04/15 21:05:23;;;;;;;8.80;6.70;;;;;;;8.70;76.71;99133.02;220643;1271;22697;-71
2022/04/15 21:10:28;;;;;;;10.20;6.90;;;;;;;8.67;76.91;99134.23;220689;1273;22875;-71
2022/04/15 21:15:34;;;;;;;12.00;7.50;;;;;;;8.63;77.21;99138.73;220620;1271;22540;-71
2022/04/15 21:20:38;;;;;;;11.00;7.20;;;;;;;8.61;77.44;99134.73;220273;1271;26558;-71
2022/04/15 21:25:43;;;;;;;7.70;6.20;;;;;;;8.59;77.39;99127.89;220520;1271;22535;-71
2022/04/15 21:30:49;;;;;;;7.80;6.20;;;;;;;8.57;77.40;99125.48;220300;1271;22632;-71
2022/04/15 21:36:03;;;;;;;8.10;5.90;;;;;;;8.52;77.87;99120.83;219972;1273;22561;-71
2022/04/15 21:41:06;;;;;;;7.60;6.10;;;;;;;8.46;77.99;99117.83;220059;1271;23052;-71
2022/04/15 21:46:10;;;;;;;8.20;6.30;;;;;;;8.35;78.15;99108.02;220064;1271;22538;-71
2022/04/15 21:56:48;;;;;;;9.30;7.00;;;;;;;8.13;78.78;99111.35;220273;1273;22618;-71
2022/04/15 22:01:52;;;;;;;9.40;6.90;;;;;;;8.05;78.94;99113.99;220787;1271;22532;-71
2022/04/15 22:06:56;;;;;;;8.80;6.60;;;;;;;7.96;79.25;99115.63;220414;1271;22707;-71
2022/04/15 22:11:58;;;;;;;9.00;7.50;;;;;;;7.90;79.49;99122.42;220243;1271;22591;-72
2022/04/15 22:17:01;;;;;;;9.40;7.10;;;;;;;7.90;79.77;99127.61;220222;1272;22557;-71
2022/04/15 22:22:12;;;;;;;8.40;6.90;;;;;;;7.93;80.04;99124.95;219024;1271;22720;-71
2022/04/15 22:27:16;;;;;;;7.70;6.90;;;;;;;7.94;79.88;99132.16;219136;1271;23134;-71
2022/04/15 22:32:19;;;;;;;8.50;7.60;;;;;;;7.94;80.13;99130.61;220244;1271;22553;-71
2022/04/15 22:37:24;;;;;;;11.00;8.00;;;;;;;7.94;80.34;99135.14;219252;1271;22482;-72
2022/04/15 22:42:27;;;;;;;7.40;6.70;;;;;;;7.93;80.19;99134.44;219617;1270;22654;-71
2022/04/15 22:47:45;;;;;;;10.20;7.30;;;;;;;7.93;80.24;99134.76;220193;1273;24287;-71
2022/04/15 22:52:48;;;;;;;10.00;7.80;;;;;;;7.90;80.22;99136.25;220142;1272;22562;-71
2022/04/15 22:57:51;;;;;;;10.50;8.80;;;;;;;7.88;80.47;99136.04;219981;1272;22535;-70
2022/04/15 23:02:59;;;;;;;10.10;8.50;;;;;;;7.86;80.55;99136.82;220133;1271;22632;-71
2022/04/15 23:08:02;;;;;;;10.30;7.80;;;;;;;7.84;80.75;99131.97;220240;1271;22688;-71
2022/04/15 23:13:07;;;;;;;9.30;8.30;;;;;;;7.85;81.19;99134.16;220167;1271;24331;-71
2022/04/15 23:18:10;;;;;;;9.00;8.10;;;;;;;7.83;81.13;99134.36;220264;1271;22474;-71
2022/04/15 23:23:13;;;;;;;13.60;11.10;;;;;;;7.81;81.22;99134.73;220674;1271;24764;-71
2022/04/15 23:28:19;;;;;;;8.40;7.10;;;;;;;7.76;81.42;99135.72;220381;1273;24332;-71
2022/04/15 23:33:24;;;;;;;7.80;6.70;;;;;;;7.73;81.86;99140.08;220327;1271;24271;-71
2022/04/15 23:38:29;;;;;;;7.00;6.30;;;;;;;7.68;82.02;99146.94;220066;1271;22561;-71
2022/04/15 23:44:31;;;;;;;;;;;;;;;;;;;;;
2022/04/15 23:50:59;;;;;;;3.80;3.30;;;;;;;7.48;83.14;99156.77;220438;1271;25426;-73
2022/04/15 23:57:04;;;;;;;1.50;1.40;;;;;;;7.18;83.13;99160.37;220356;1273;22675;-73
